RYR77GB EGCC-EIDW
Flight info
| Callsign | RYR77GB |
|---|---|
| Flight time | 0h 42m |
| Altitude | 26000 |
| Route | ASMIM L975 WAL L10 PENIL/N0412F240 L28 LELDO M145 BAGSO BAGSO4L |
| Aircraft | B738/M-SDE2E3FGHIRWXY/LB1 |
Departure
| Time | 2026-05-05 18:30 |
|---|---|
| Airport | Manchester Airport (EGCC) |
Arrival
| Time | 2026-05-05 19:12 |
|---|---|
| Airport | Dublin Airport (EIDW) |
| Time | Latitude | Longitude | Altitude | Speed | Heading |
|---|---|---|---|---|---|
| 2026-05-05 17:50 | 53.36089 | -2.26807 | 267 ft | 0 kts | 326° |
| 2026-05-05 18:17 | 53.36086 | -2.26803 | 267 ft | 2 kts | 326° |
| 2026-05-05 18:17 | 53.36074 | -2.26789 | 267 ft | 2 kts | 326° |
| 2026-05-05 18:18 | 53.36062 | -2.26775 | 267 ft | 1 kts | 326° |
| 2026-05-05 18:18 | 53.36054 | -2.26767 | 267 ft | 2 kts | 320° |
| 2026-05-05 18:18 | 53.36046 | -2.26746 | 268 ft | 2 kts | 287° |
| 2026-05-05 18:18 | 53.36045 | -2.26721 | 268 ft | 2 kts | 259° |
| 2026-05-05 18:19 | 53.36050 | -2.26700 | 268 ft | 0 kts | 234° |
| 2026-05-05 18:19 | 53.36055 | -2.26692 | 267 ft | 1 kts | 229° |
| 2026-05-05 18:19 | 53.36056 | -2.26690 | 267 ft | 0 kts | 229° |
| 2026-05-05 18:22 | 53.36051 | -2.26698 | 267 ft | 0 kts | 229° |
| 2026-05-05 18:22 | 53.36032 | -2.26735 | 268 ft | 11 kts | 230° |
| 2026-05-05 18:22 | 53.35983 | -2.26830 | 268 ft | 9 kts | 224° |
| 2026-05-05 18:23 | 53.35960 | -2.26859 | 268 ft | 3 kts | 210° |
| 2026-05-05 18:23 | 53.35930 | -2.26863 | 268 ft | 9 kts | 162° |
| 2026-05-05 18:23 | 53.35873 | -2.26895 | 267 ft | 9 kts | 228° |
| 2026-05-05 18:23 | 53.35832 | -2.26998 | 265 ft | 12 kts | 241° |
| 2026-05-05 18:24 | 53.35766 | -2.27151 | 258 ft | 19 kts | 231° |
| 2026-05-05 18:24 | 53.35695 | -2.27300 | 251 ft | 18 kts | 231° |
| 2026-05-05 18:24 | 53.35606 | -2.27485 | 246 ft | 20 kts | 231° |
| 2026-05-05 18:24 | 53.35520 | -2.27657 | 242 ft | 18 kts | 229° |
| 2026-05-05 18:25 | 53.35460 | -2.27845 | 239 ft | 19 kts | 265° |
| 2026-05-05 18:25 | 53.35425 | -2.27971 | 239 ft | 18 kts | 226° |
| 2026-05-05 18:25 | 53.35285 | -2.28205 | 235 ft | 22 kts | 227° |
| 2026-05-05 18:25 | 53.35186 | -2.28396 | 231 ft | 17 kts | 231° |
| 2026-05-05 18:26 | 53.35097 | -2.28580 | 229 ft | 21 kts | 231° |
| 2026-05-05 18:26 | 53.34997 | -2.28783 | 225 ft | 22 kts | 217° |
| 2026-05-05 18:26 | 53.34897 | -2.28942 | 219 ft | 23 kts | 226° |
| 2026-05-05 18:26 | 53.34787 | -2.29147 | 209 ft | 19 kts | 232° |
| 2026-05-05 18:27 | 53.34702 | -2.29305 | 200 ft | 14 kts | 216° |
| 2026-05-05 18:27 | 53.34688 | -2.29319 | 200 ft | 0 kts | 205° |
| 2026-05-05 18:27 | 53.34681 | -2.29324 | 200 ft | 4 kts | 203° |
| 2026-05-05 18:28 | 53.34551 | -2.29281 | 197 ft | 10 kts | 127° |
| 2026-05-05 18:28 | 53.34552 | -2.29196 | 200 ft | 5 kts | 60° |
| 2026-05-05 18:28 | 53.34562 | -2.29175 | 201 ft | 0 kts | 51° |
| 2026-05-05 18:29 | 53.34589 | -2.29120 | 204 ft | 30 kts | 51° |
| 2026-05-05 18:30 | 53.34886 | -2.28505 | 226 ft | 106 kts | 51° |
| 2026-05-05 18:30 | 53.35513 | -2.27215 | 267 ft | 172 kts | 53° |
| 2026-05-05 18:30 | 53.36248 | -2.25610 | 1088 ft | 174 kts | 48° |
| 2026-05-05 18:30 | 53.36960 | -2.24259 | 2332 ft | 149 kts | 49° |
| 2026-05-05 18:31 | 53.37621 | -2.22844 | 2952 ft | 165 kts | 52° |
| 2026-05-05 18:31 | 53.38328 | -2.21368 | 3487 ft | 171 kts | 41° |
| 2026-05-05 18:31 | 53.39465 | -2.20544 | 3862 ft | 190 kts | 7° |
| 2026-05-05 18:31 | 53.40844 | -2.20878 | 4264 ft | 213 kts | 341° |
| 2026-05-05 18:32 | 53.42089 | -2.22361 | 4768 ft | 233 kts | 309° |
| 2026-05-05 18:32 | 53.42706 | -2.24984 | 5033 ft | 262 kts | 279° |
| 2026-05-05 18:32 | 53.42789 | -2.28142 | 5019 ft | 277 kts | 278° |
| 2026-05-05 18:32 | 53.43328 | -2.31173 | 5019 ft | 268 kts | 300° |
| 2026-05-05 18:33 | 53.44310 | -2.33852 | 5319 ft | 278 kts | 305° |
| 2026-05-05 18:33 | 53.45305 | -2.36513 | 6408 ft | 270 kts | 303° |
| 2026-05-05 18:33 | 53.46242 | -2.39270 | 7199 ft | 273 kts | 299° |
| 2026-05-05 18:33 | 53.46943 | -2.42181 | 7973 ft | 276 kts | 284° |
| 2026-05-05 18:34 | 53.46968 | -2.45411 | 8794 ft | 279 kts | 263° |
| 2026-05-05 18:34 | 53.46592 | -2.48606 | 9548 ft | 282 kts | 259° |
| 2026-05-05 18:34 | 53.46166 | -2.51810 | 10270 ft | 284 kts | 260° |
| 2026-05-05 18:34 | 53.45753 | -2.55127 | 10715 ft | 298 kts | 261° |
| 2026-05-05 18:35 | 53.45349 | -2.58625 | 11115 ft | 313 kts | 261° |
| 2026-05-05 18:35 | 53.44943 | -2.62289 | 11503 ft | 328 kts | 261° |
| 2026-05-05 18:35 | 53.44525 | -2.66090 | 12092 ft | 335 kts | 261° |
| 2026-05-05 18:35 | 53.44103 | -2.69917 | 12827 ft | 338 kts | 261° |
| 2026-05-05 18:36 | 53.43669 | -2.73838 | 13597 ft | 341 kts | 260° |
| 2026-05-05 18:36 | 53.43239 | -2.77697 | 14353 ft | 343 kts | 260° |
| 2026-05-05 18:36 | 53.42798 | -2.81642 | 15142 ft | 346 kts | 260° |
| 2026-05-05 18:36 | 53.42355 | -2.85595 | 15900 ft | 349 kts | 260° |
| 2026-05-05 18:37 | 53.41905 | -2.89579 | 16632 ft | 352 kts | 260° |
| 2026-05-05 18:37 | 53.41449 | -2.93614 | 17374 ft | 354 kts | 260° |
| 2026-05-05 18:37 | 53.40993 | -2.97632 | 18089 ft | 356 kts | 260° |
| 2026-05-05 18:37 | 53.40529 | -3.01723 | 18789 ft | 359 kts | 260° |
| 2026-05-05 18:38 | 53.40081 | -3.05839 | 19459 ft | 362 kts | 262° |
| 2026-05-05 18:38 | 53.39964 | -3.10082 | 20131 ft | 364 kts | 274° |
| 2026-05-05 18:38 | 53.40370 | -3.14187 | 21012 ft | 360 kts | 285° |
| 2026-05-05 18:38 | 53.41266 | -3.18050 | 21815 ft | 359 kts | 296° |
| 2026-05-05 18:39 | 53.42572 | -3.21657 | 22541 ft | 359 kts | 303° |
| 2026-05-05 18:39 | 53.43999 | -3.25058 | 23242 ft | 358 kts | 304° |
| 2026-05-05 18:39 | 53.45457 | -3.28414 | 23868 ft | 358 kts | 305° |
| 2026-05-05 18:39 | 53.46940 | -3.31808 | 24025 ft | 363 kts | 305° |
| 2026-05-05 18:40 | 53.48420 | -3.35213 | 24035 ft | 360 kts | 304° |
| 2026-05-05 18:40 | 53.49880 | -3.38598 | 24035 ft | 355 kts | 304° |
| 2026-05-05 18:40 | 53.51319 | -3.41958 | 24038 ft | 356 kts | 304° |
| 2026-05-05 18:40 | 53.52749 | -3.45318 | 24037 ft | 355 kts | 304° |
| 2026-05-05 18:41 | 53.54185 | -3.48706 | 24034 ft | 355 kts | 304° |
| 2026-05-05 18:41 | 53.55603 | -3.52063 | 24033 ft | 354 kts | 304° |
| 2026-05-05 18:41 | 53.57024 | -3.55435 | 24036 ft | 354 kts | 304° |
| 2026-05-05 18:41 | 53.58442 | -3.58807 | 24038 ft | 354 kts | 304° |
| 2026-05-05 18:42 | 53.59862 | -3.62198 | 24040 ft | 354 kts | 303° |
| 2026-05-05 18:42 | 53.61181 | -3.65659 | 24038 ft | 353 kts | 298° |
| 2026-05-05 18:42 | 53.62316 | -3.69344 | 24037 ft | 352 kts | 294° |
| 2026-05-05 18:42 | 53.63291 | -3.73086 | 24046 ft | 352 kts | 291° |
| 2026-05-05 18:43 | 53.64218 | -3.76928 | 24040 ft | 352 kts | 291° |
| 2026-05-05 18:43 | 53.65106 | -3.80707 | 24042 ft | 353 kts | 290° |
| 2026-05-05 18:43 | 53.66013 | -3.84584 | 24039 ft | 353 kts | 291° |
| 2026-05-05 18:43 | 53.66910 | -3.88404 | 24048 ft | 353 kts | 291° |
| 2026-05-05 18:44 | 53.67813 | -3.92240 | 24046 ft | 353 kts | 291° |
| 2026-05-05 18:44 | 53.68723 | -3.96092 | 24038 ft | 352 kts | 291° |
| 2026-05-05 18:44 | 53.69620 | -3.99889 | 24050 ft | 352 kts | 291° |
| 2026-05-05 18:44 | 53.70512 | -4.03717 | 24044 ft | 352 kts | 289° |
| 2026-05-05 18:45 | 53.71275 | -4.07678 | 24045 ft | 351 kts | 284° |
| 2026-05-05 18:45 | 53.71758 | -4.11700 | 24043 ft | 351 kts | 278° |
| 2026-05-05 18:45 | 53.72020 | -4.15755 | 24046 ft | 346 kts | 275° |
| 2026-05-05 18:45 | 53.72178 | -4.19690 | 24042 ft | 333 kts | 274° |
| 2026-05-05 18:46 | 53.72300 | -4.23531 | 23844 ft | 324 kts | 274° |
| 2026-05-05 18:46 | 53.72415 | -4.27273 | 23511 ft | 319 kts | 274° |
| 2026-05-05 18:46 | 53.72535 | -4.31007 | 23109 ft | 317 kts | 274° |
| 2026-05-05 18:46 | 53.72659 | -4.34692 | 22714 ft | 314 kts | 274° |
| 2026-05-05 18:47 | 53.72786 | -4.38349 | 22322 ft | 311 kts | 274° |
| 2026-05-05 18:47 | 53.72912 | -4.41927 | 21932 ft | 309 kts | 274° |
| 2026-05-05 18:47 | 53.73039 | -4.45512 | 21539 ft | 306 kts | 274° |
| 2026-05-05 18:47 | 53.73167 | -4.49104 | 21154 ft | 303 kts | 274° |
| 2026-05-05 18:48 | 53.73291 | -4.52619 | 20774 ft | 301 kts | 274° |
| 2026-05-05 18:48 | 53.73414 | -4.56117 | 20397 ft | 298 kts | 274° |
| 2026-05-05 18:48 | 53.73534 | -4.59602 | 20015 ft | 296 kts | 274° |
| 2026-05-05 18:48 | 53.73653 | -4.63032 | 19641 ft | 294 kts | 274° |
| 2026-05-05 18:49 | 53.73769 | -4.66430 | 19269 ft | 291 kts | 274° |
| 2026-05-05 18:49 | 53.73886 | -4.69873 | 18894 ft | 289 kts | 274° |
| 2026-05-05 18:49 | 53.73999 | -4.73208 | 18531 ft | 287 kts | 274° |
| 2026-05-05 18:49 | 53.74110 | -4.76552 | 18165 ft | 285 kts | 274° |
| 2026-05-05 18:50 | 53.74220 | -4.79876 | 17802 ft | 284 kts | 274° |
| 2026-05-05 18:50 | 53.74331 | -4.83244 | 17438 ft | 291 kts | 274° |
| 2026-05-05 18:50 | 53.74445 | -4.86698 | 17061 ft | 301 kts | 274° |
| 2026-05-05 18:50 | 53.74561 | -4.90229 | 16670 ft | 301 kts | 274° |
| 2026-05-05 18:51 | 53.74674 | -4.93717 | 16288 ft | 298 kts | 274° |
| 2026-05-05 18:51 | 53.74784 | -4.97166 | 15912 ft | 295 kts | 274° |
| 2026-05-05 18:51 | 53.74894 | -5.00640 | 15533 ft | 293 kts | 274° |
| 2026-05-05 18:51 | 53.75000 | -5.04004 | 15160 ft | 290 kts | 274° |
| 2026-05-05 18:52 | 53.75106 | -5.07412 | 14794 ft | 287 kts | 274° |
| 2026-05-05 18:52 | 53.75199 | -5.10761 | 14426 ft | 285 kts | 273° |
| 2026-05-05 18:52 | 53.75131 | -5.14047 | 14063 ft | 284 kts | 265° |
| 2026-05-05 18:52 | 53.74720 | -5.17288 | 13707 ft | 283 kts | 256° |
| 2026-05-05 18:53 | 53.74106 | -5.20434 | 13344 ft | 281 kts | 253° |
| 2026-05-05 18:53 | 53.73444 | -5.23515 | 12988 ft | 279 kts | 252° |
| 2026-05-05 18:53 | 53.72786 | -5.26596 | 12624 ft | 277 kts | 253° |
| 2026-05-05 18:53 | 53.72156 | -5.29615 | 12271 ft | 275 kts | 253° |
| 2026-05-05 18:54 | 53.71535 | -5.32650 | 11921 ft | 273 kts | 253° |
| 2026-05-05 18:54 | 53.70916 | -5.35694 | 11567 ft | 271 kts | 253° |
| 2026-05-05 18:54 | 53.70311 | -5.38673 | 11221 ft | 269 kts | 253° |
| 2026-05-05 18:54 | 53.69709 | -5.41629 | 10880 ft | 268 kts | 254° |
| 2026-05-05 18:55 | 53.69107 | -5.44575 | 10538 ft | 266 kts | 253° |
| 2026-05-05 18:55 | 53.68509 | -5.47501 | 10192 ft | 265 kts | 253° |
| 2026-05-05 18:55 | 53.68026 | -5.50479 | 10042 ft | 257 kts | 264° |
| 2026-05-05 18:55 | 53.67955 | -5.53416 | 9994 ft | 253 kts | 275° |
| 2026-05-05 18:56 | 53.68085 | -5.56442 | 9915 ft | 264 kts | 277° |
| 2026-05-05 18:56 | 53.68230 | -5.59582 | 9578 ft | 280 kts | 276° |
| 2026-05-05 18:56 | 53.68304 | -5.62869 | 9222 ft | 280 kts | 268° |
| 2026-05-05 18:56 | 53.67739 | -5.65986 | 8961 ft | 278 kts | 239° |
| 2026-05-05 18:57 | 53.66409 | -5.68252 | 8712 ft | 277 kts | 214° |
| 2026-05-05 18:57 | 53.64659 | -5.69613 | 8465 ft | 278 kts | 198° |
| 2026-05-05 18:57 | 53.62758 | -5.70077 | 8203 ft | 280 kts | 175° |
| 2026-05-05 18:57 | 53.60935 | -5.69080 | 8071 ft | 276 kts | 146° |
| 2026-05-05 18:58 | 53.59456 | -5.67052 | 8077 ft | 275 kts | 136° |
| 2026-05-05 18:58 | 53.58026 | -5.64912 | 8056 ft | 269 kts | 137° |
| 2026-05-05 18:58 | 53.56576 | -5.63061 | 8053 ft | 257 kts | 146° |
| 2026-05-05 18:58 | 53.55075 | -5.61490 | 8063 ft | 254 kts | 148° |
| 2026-05-05 18:59 | 53.53552 | -5.59966 | 8061 ft | 257 kts | 148° |
| 2026-05-05 18:59 | 53.52018 | -5.58426 | 8056 ft | 257 kts | 148° |
| 2026-05-05 18:59 | 53.50496 | -5.56882 | 8058 ft | 257 kts | 147° |
| 2026-05-05 18:59 | 53.48927 | -5.55453 | 8052 ft | 257 kts | 156° |
| 2026-05-05 19:00 | 53.47191 | -5.54638 | 8057 ft | 258 kts | 170° |
| 2026-05-05 19:00 | 53.45414 | -5.54218 | 8058 ft | 258 kts | 173° |
| 2026-05-05 19:00 | 53.43658 | -5.53843 | 8058 ft | 258 kts | 172° |
| 2026-05-05 19:00 | 53.41859 | -5.53406 | 8059 ft | 258 kts | 171° |
| 2026-05-05 19:01 | 53.40091 | -5.52993 | 8056 ft | 258 kts | 175° |
| 2026-05-05 19:01 | 53.38319 | -5.53098 | 8054 ft | 257 kts | 191° |
| 2026-05-05 19:01 | 53.36592 | -5.53746 | 8051 ft | 250 kts | 195° |
| 2026-05-05 19:01 | 53.34955 | -5.54471 | 8047 ft | 236 kts | 195° |
| 2026-05-05 19:02 | 53.33401 | -5.55122 | 8050 ft | 222 kts | 194° |
| 2026-05-05 19:02 | 53.31938 | -5.55695 | 8054 ft | 212 kts | 194° |
| 2026-05-05 19:02 | 53.30521 | -5.56281 | 8062 ft | 212 kts | 200° |
| 2026-05-05 19:02 | 53.29204 | -5.57372 | 8062 ft | 213 kts | 216° |
| 2026-05-05 19:03 | 53.28054 | -5.58893 | 7975 ft | 208 kts | 235° |
| 2026-05-05 19:03 | 53.27538 | -5.61069 | 7613 ft | 203 kts | 274° |
| 2026-05-05 19:03 | 53.27882 | -5.63270 | 7362 ft | 194 kts | 304° |
| 2026-05-05 19:03 | 53.28629 | -5.65100 | 7107 ft | 192 kts | 307° |
| 2026-05-05 19:04 | 53.29382 | -5.66937 | 6850 ft | 192 kts | 306° |
| 2026-05-05 19:04 | 53.30109 | -5.68777 | 6615 ft | 190 kts | 306° |
| 2026-05-05 19:04 | 53.30838 | -5.70622 | 6356 ft | 190 kts | 306° |
| 2026-05-05 19:04 | 53.31559 | -5.72462 | 6126 ft | 199 kts | 303° |
| 2026-05-05 19:05 | 53.32271 | -5.74636 | 6350 ft | 225 kts | 303° |
| 2026-05-05 19:05 | 53.33180 | -5.76889 | 6106 ft | 236 kts | 308° |
| 2026-05-05 19:05 | 53.34125 | -5.79060 | 5954 ft | 223 kts | 308° |
| 2026-05-05 19:05 | 53.34978 | -5.81105 | 5790 ft | 211 kts | 307° |
| 2026-05-05 19:06 | 53.35769 | -5.83071 | 5683 ft | 197 kts | 306° |
| 2026-05-05 19:06 | 53.36501 | -5.84919 | 5601 ft | 184 kts | 306° |
| 2026-05-05 19:06 | 53.37212 | -5.86714 | 5295 ft | 185 kts | 306° |
| 2026-05-05 19:06 | 53.37914 | -5.88487 | 5052 ft | 182 kts | 307° |
| 2026-05-05 19:07 | 53.38613 | -5.90254 | 4735 ft | 184 kts | 306° |
| 2026-05-05 19:07 | 53.39315 | -5.92041 | 4551 ft | 182 kts | 305° |
| 2026-05-05 19:07 | 53.39897 | -5.93937 | 4370 ft | 187 kts | 294° |
| 2026-05-05 19:07 | 53.40234 | -5.96042 | 3995 ft | 194 kts | 285° |
| 2026-05-05 19:08 | 53.40448 | -5.98322 | 3505 ft | 201 kts | 281° |
| 2026-05-05 19:08 | 53.40610 | -6.00623 | 3178 ft | 196 kts | 280° |
| 2026-05-05 19:08 | 53.40743 | -6.02779 | 2877 ft | 181 kts | 279° |
| 2026-05-05 19:08 | 53.40863 | -6.04799 | 2628 ft | 167 kts | 279° |
| 2026-05-05 19:09 | 53.40971 | -6.06642 | 2408 ft | 155 kts | 279° |
| 2026-05-05 19:09 | 53.41072 | -6.08379 | 2192 ft | 144 kts | 280° |
| 2026-05-05 19:09 | 53.41161 | -6.09954 | 2007 ft | 129 kts | 280° |
| 2026-05-05 19:09 | 53.41224 | -6.11460 | 1734 ft | 141 kts | 268° |
| 2026-05-05 19:10 | 53.41004 | -6.13039 | 2013 ft | 126 kts | 261° |
| 2026-05-05 19:10 | 53.40852 | -6.14340 | 1819 ft | 153 kts | 264° |
| 2026-05-05 19:10 | 53.41006 | -6.16118 | 1558 ft | 153 kts | 293° |
| 2026-05-05 19:10 | 53.41357 | -6.17772 | 1310 ft | 154 kts | 293° |
| 2026-05-05 19:11 | 53.41642 | -6.19465 | 1113 ft | 148 kts | 285° |
| 2026-05-05 19:11 | 53.41792 | -6.21123 | 889 ft | 142 kts | 279° |
| 2026-05-05 19:11 | 53.41899 | -6.22755 | 585 ft | 136 kts | 277° |
| 2026-05-05 19:11 | 53.41989 | -6.24338 | 366 ft | 140 kts | 277° |
| 2026-05-05 19:12 | 53.42080 | -6.25951 | 233 ft | 137 kts | 277° |
| 2026-05-05 19:12 | 53.42159 | -6.27359 | 228 ft | 88 kts | 274° |
| 2026-05-05 19:12 | 53.42188 | -6.27958 | 234 ft | 32 kts | 277° |
| 2026-05-05 19:12 | 53.42258 | -6.28254 | 236 ft | 19 kts | 308° |
| 2026-05-05 19:13 | 53.42331 | -6.28320 | 238 ft | 9 kts | 4° |
| 2026-05-05 19:13 | 53.42367 | -6.28261 | 238 ft | 8 kts | 74° |
| 2026-05-05 19:13 | 53.42371 | -6.28164 | 237 ft | 10 kts | 92° |
| 2026-05-05 19:13 | 53.42361 | -6.27976 | 235 ft | 19 kts | 96° |
| 2026-05-05 19:14 | 53.42349 | -6.27749 | 233 ft | 20 kts | 96° |
| 2026-05-05 19:14 | 53.42335 | -6.27511 | 231 ft | 21 kts | 95° |
| 2026-05-05 19:14 | 53.42321 | -6.27244 | 229 ft | 23 kts | 94° |
| 2026-05-05 19:14 | 53.42304 | -6.26958 | 227 ft | 24 kts | 95° |
| 2026-05-05 19:15 | 53.42289 | -6.26669 | 224 ft | 25 kts | 99° |
| 2026-05-05 19:15 | 53.42273 | -6.26376 | 219 ft | 22 kts | 95° |
| 2026-05-05 19:15 | 53.42294 | -6.26128 | 214 ft | 24 kts | 57° |
| 2026-05-05 19:15 | 53.42420 | -6.25897 | 212 ft | 31 kts | 45° |
| 2026-05-05 19:16 | 53.42556 | -6.25666 | 211 ft | 18 kts | 46° |
| 2026-05-05 19:16 | 53.42657 | -6.25489 | 208 ft | 22 kts | 46° |
| 2026-05-05 19:16 | 53.42763 | -6.25309 | 208 ft | 18 kts | 46° |
| 2026-05-05 19:16 | 53.42829 | -6.25202 | 208 ft | 9 kts | 33° |
| 2026-05-05 19:17 | 53.42885 | -6.25199 | 209 ft | 11 kts | 342° |
| 2026-05-05 19:17 | 53.42961 | -6.25249 | 210 ft | 7 kts | 329° |
| 2026-05-05 19:17 | 53.43014 | -6.25296 | 211 ft | 2 kts | 336° |
| 2026-05-05 19:17 | 53.43028 | -6.25289 | 210 ft | 3 kts | 54° |
| 2026-05-05 19:18 | 53.43032 | -6.25260 | 210 ft | 3 kts | 65° |
| 2026-05-05 19:18 | 53.43047 | -6.25208 | 209 ft | 0 kts | 66° |
| 2026-05-05 19:18 | 53.43050 | -6.25192 | 209 ft | 1 kts | 66° |
| 2026-05-05 19:18 | 53.43051 | -6.25190 | 209 ft | 0 kts | 66° |